createdAt,value
2023-02-28T00:01:56.701Z,102156.89
2023-02-28T00:04:25.185Z,102161.42
2023-02-28T00:06:55.084Z,102173.02
2023-02-28T00:09:23.249Z,102176.54
2023-02-28T00:11:54.972Z,102180.33
2023-02-28T00:14:24.519Z,102180.49
2023-02-28T00:16:53.144Z,102185.10
2023-02-28T00:19:21.332Z,102183.05
2023-02-28T00:21:49.802Z,102178.66
2023-02-28T00:24:17.874Z,102190.45
2023-02-28T00:26:45.992Z,102189.98
2023-02-28T00:29:14.367Z,102188.79
2023-02-28T00:31:42.481Z,102196.35
2023-02-28T00:34:10.594Z,102212.20
2023-02-28T00:36:46.503Z,102215.63
2023-02-28T00:39:14.755Z,102214.70
2023-02-28T00:41:47.737Z,102214.33
2023-02-28T00:44:15.920Z,102215.58
2023-02-28T00:46:43.953Z,102215.10
2023-02-28T00:49:12.839Z,102216.52
2023-02-28T00:51:41.271Z,102222.59
2023-02-28T00:54:10.169Z,102220.00
2023-02-28T00:56:38.414Z,102219.35
2023-02-28T00:59:06.876Z,102218.05
2023-02-28T01:01:35.749Z,102212.61
2023-02-28T01:04:04.900Z,102204.36
2023-02-28T01:06:33.545Z,102203.84
2023-02-28T01:09:01.712Z,102215.69
2023-02-28T01:11:34.484Z,102220.38
2023-02-28T01:14:03.070Z,102227.45
2023-02-28T01:16:31.668Z,102234.63
2023-02-28T01:18:59.790Z,102237.52
2023-02-28T01:21:28.176Z,102236.65
2023-02-28T01:23:58.450Z,102237.25
2023-02-28T01:26:26.771Z,102240.99
2023-02-28T01:28:55.057Z,102248.10
2023-02-28T01:31:23.494Z,102252.98
2023-02-28T01:33:52.911Z,102257.44
2023-02-28T01:36:22.807Z,102262.72
2023-02-28T01:38:51.728Z,102257.63
2023-02-28T01:41:24.718Z,102254.56
2023-02-28T01:43:54.210Z,102265.09
2023-02-28T01:46:22.707Z,102264.78
2023-02-28T01:48:55.171Z,102264.32
2023-02-28T01:51:35.484Z,102258.77
2023-02-28T01:54:14.810Z,102253.42
2023-02-28T01:56:49.252Z,102248.15
2023-02-28T01:59:26.344Z,102248.98
2023-02-28T02:01:55.076Z,102256.98
2023-02-28T02:04:24.840Z,102267.82
2023-02-28T02:06:53.011Z,102278.50
2023-02-28T02:09:24.121Z,102287.85
2023-02-28T02:11:54.868Z,102291.89
2023-02-28T02:14:47.803Z,102294.30
2023-02-28T02:17:22.645Z,102299.96
2023-02-28T02:20:04.530Z,102300.44
2023-02-28T02:23:14.774Z,102310.08
2023-02-28T02:25:49.719Z,102320.85
2023-02-28T02:28:37.655Z,102321.55
2023-02-28T02:31:06.115Z,102316.95
2023-02-28T02:34:09.557Z,102312.36
2023-02-28T02:37:23.040Z,102314.05
2023-02-28T02:39:55.321Z,102323.79
2023-02-28T02:42:30.720Z,102317.05
2023-02-28T02:45:05.059Z,102321.33
2023-02-28T02:47:33.962Z,102334.88
2023-02-28T02:50:05.749Z,102333.54
2023-02-28T02:52:44.004Z,102335.89
2023-02-28T02:55:13.286Z,102345.42
2023-02-28T02:57:48.434Z,102349.06
2023-02-28T03:00:18.669Z,102359.77
2023-02-28T03:02:49.021Z,102364.69
2023-02-28T03:05:25.348Z,102366.88
2023-02-28T03:07:53.414Z,102366.58
2023-02-28T03:10:33.824Z,102365.63
2023-02-28T03:13:19.643Z,102369.02
2023-02-28T03:16:13.334Z,102374.61
2023-02-28T03:18:50.753Z,102378.91
2023-02-28T03:21:28.785Z,102377.46
2023-02-28T03:24:06.649Z,102369.89
2023-02-28T03:26:36.648Z,102368.13
2023-02-28T03:29:21.443Z,102362.21
2023-02-28T03:31:55.137Z,102359.45
2023-02-28T03:34:39.027Z,102366.77
2023-02-28T03:37:10.214Z,102373.36
2023-02-28T03:39:48.305Z,102376.40
2023-02-28T03:42:28.961Z,102379.45
2023-02-28T03:45:05.188Z,102387.21
2023-02-28T03:47:39.859Z,102385.20
2023-02-28T03:50:22.652Z,102384.39
2023-02-28T03:52:53.603Z,102385.99
2023-02-28T03:55:21.731Z,102385.23
2023-02-28T03:58:12.448Z,102383.95
2023-02-28T04:00:43.547Z,102378.66
2023-02-28T04:03:12.126Z,102380.83
2023-02-28T04:05:54.853Z,102388.87
2023-02-28T04:08:23.559Z,102390.06
2023-02-28T04:11:02.398Z,102395.06
2023-02-28T04:13:30.699Z,102405.13
2023-02-28T04:15:59.097Z,102406.11
2023-02-28T04:18:29.417Z,102405.02
2023-02-28T04:21:01.318Z,102407.29
2023-02-28T04:23:29.887Z,102411.70
2023-02-28T04:25:58.906Z,102416.15
2023-02-28T04:28:32.302Z,102419.59
2023-02-28T04:31:03.838Z,102422.10
2023-02-28T04:33:33.156Z,102417.77
2023-02-28T04:36:06.699Z,102411.17
2023-02-28T04:38:35.808Z,102413.98
2023-02-28T04:41:04.642Z,102413.65
2023-02-28T04:43:33.217Z,102416.66
2023-02-28T04:46:03.207Z,102416.02
2023-02-28T04:48:33.032Z,102413.89
2023-02-28T04:51:05.963Z,102409.69
2023-02-28T04:53:40.098Z,102409.96
2023-02-28T04:56:08.829Z,102406.04
2023-02-28T04:58:36.963Z,102410.23
2023-02-28T05:01:17.189Z,102416.30
2023-02-28T05:03:45.542Z,102426.55
2023-02-28T05:06:13.852Z,102429.40
2023-02-28T05:08:43.221Z,102426.58
2023-02-28T05:11:22.400Z,102427.52
2023-02-28T05:13:51.100Z,102433.15
2023-02-28T05:16:19.544Z,102445.52
2023-02-28T05:18:48.386Z,102445.98
2023-02-28T05:21:27.278Z,102448.04
2023-02-28T05:23:56.263Z,102450.86
2023-02-28T05:26:24.836Z,102450.70
2023-02-28T05:28:53.110Z,102459.76
2023-02-28T05:31:21.653Z,102460.86
2023-02-28T05:33:49.888Z,102467.97
2023-02-28T05:36:20.713Z,102469.30
2023-02-28T05:38:49.363Z,102458.41
2023-02-28T05:41:21.113Z,102460.88
2023-02-28T05:43:49.493Z,102464.89
2023-02-28T05:46:17.661Z,102465.14
2023-02-28T05:48:47.996Z,102466.92
2023-02-28T05:51:16.481Z,102465.13
2023-02-28T05:53:45.475Z,102467.09
2023-02-28T05:56:13.856Z,102469.50
2023-02-28T05:58:43.677Z,102477.88
2023-02-28T06:01:49.364Z,102474.75
2023-02-28T06:04:31.070Z,102471.42
2023-02-28T06:07:00.180Z,102467.14
2023-02-28T06:09:33.721Z,102465.23
2023-02-28T06:12:04.842Z,102464.69
2023-02-28T06:14:34.441Z,102463.98
2023-02-28T06:17:04.079Z,102465.17
2023-02-28T06:19:33.398Z,102473.51
2023-02-28T06:22:01.554Z,102481.99
2023-02-28T06:24:31.456Z,102484.30
2023-02-28T06:27:06.089Z,102487.17
2023-02-28T06:29:35.808Z,102482.34
2023-02-28T06:32:04.080Z,102480.06
2023-02-28T06:34:36.964Z,102484.75
2023-02-28T06:37:05.811Z,102481.54
2023-02-28T06:39:40.407Z,102487.70
2023-02-28T06:42:09.174Z,102479.14
2023-02-28T06:44:37.427Z,102483.13
2023-02-28T06:47:07.710Z,102490.14
2023-02-28T06:49:40.259Z,102491.66
2023-02-28T06:52:11.069Z,102490.67
2023-02-28T06:54:42.387Z,102489.09
2023-02-28T06:57:10.461Z,102493.44
2023-02-28T06:59:38.855Z,102495.52
2023-02-28T07:02:08.328Z,102498.61
2023-02-28T07:04:41.723Z,102508.44
2023-02-28T07:07:12.725Z,102505.27
2023-02-28T07:09:41.947Z,102508.14
2023-02-28T07:12:14.423Z,102509.35
2023-02-28T07:14:42.581Z,102518.78
2023-02-28T07:17:14.690Z,102524.75
2023-02-28T07:19:43.381Z,102523.05
2023-02-28T07:22:11.620Z,102526.29
2023-02-28T07:24:39.797Z,102535.65
2023-02-28T07:27:07.952Z,102534.28
2023-02-28T07:29:39.371Z,102528.48
2023-02-28T07:32:07.451Z,102527.41
2023-02-28T07:34:35.965Z,102524.54
2023-02-28T07:37:06.329Z,102528.02
2023-02-28T07:39:34.984Z,102540.55
2023-02-28T07:42:07.492Z,102536.19
2023-02-28T07:44:36.610Z,102541.83
2023-02-28T07:47:08.168Z,102542.02
2023-02-28T07:49:37.685Z,102543.35
2023-02-28T07:52:11.394Z,102548.41
2023-02-28T07:54:44.729Z,102554.73
2023-02-28T07:57:19.114Z,102560.00
2023-02-28T07:59:47.334Z,102555.98
2023-02-28T08:02:20.520Z,102555.74
2023-02-28T08:04:52.205Z,102556.94
2023-02-28T08:07:40.561Z,102558.92
2023-02-28T08:10:14.093Z,102565.42
2023-02-28T08:12:43.937Z,102564.98
2023-02-28T08:15:12.851Z,102572.29
2023-02-28T08:17:44.893Z,102577.19
2023-02-28T08:20:13.338Z,102577.36
2023-02-28T08:22:44.812Z,102580.02
2023-02-28T08:25:14.262Z,102581.45
2023-02-28T08:27:45.458Z,102585.72
2023-02-28T08:30:15.304Z,102595.34
2023-02-28T08:32:49.456Z,102597.06
2023-02-28T08:35:17.567Z,102603.24
2023-02-28T08:37:45.818Z,102602.67
2023-02-28T08:40:19.255Z,102600.85
2023-02-28T08:42:51.460Z,102594.29
2023-02-28T08:45:20.292Z,102590.63
2023-02-28T08:47:48.663Z,102593.11
2023-02-28T08:50:17.753Z,102599.98
2023-02-28T08:52:47.371Z,102597.62
2023-02-28T08:55:15.632Z,102587.95
2023-02-28T08:57:44.295Z,102587.46
2023-02-28T09:00:14.784Z,102585.63
2023-02-28T09:02:44.886Z,102588.52
2023-02-28T09:05:16.519Z,102582.48
2023-02-28T09:07:46.023Z,102584.90
2023-02-28T09:10:15.408Z,102590.87
2023-02-28T09:12:48.116Z,102585.11
2023-02-28T09:15:19.917Z,102591.06
2023-02-28T09:17:48.671Z,102582.92
2023-02-28T09:20:23.405Z,102582.02
2023-02-28T09:22:51.818Z,102580.10
2023-02-28T09:25:20.281Z,102582.95
2023-02-28T09:27:49.992Z,102582.27
2023-02-28T09:30:18.547Z,102584.81
2023-02-28T09:32:53.199Z,102585.48
2023-02-28T09:35:25.497Z,102582.52
2023-02-28T09:37:54.072Z,102589.63
2023-02-28T09:40:25.867Z,102584.64
2023-02-28T09:42:55.675Z,102577.83
2023-02-28T09:45:37.698Z,102575.55
2023-02-28T09:48:20.380Z,102571.78
2023-02-28T09:51:24.822Z,102571.70
2023-02-28T09:54:02.281Z,102572.79
2023-02-28T09:56:43.107Z,102565.31
2023-02-28T09:59:24.828Z,102567.95
2023-02-28T10:01:56.391Z,102561.53
2023-02-28T10:04:46.976Z,102563.41
2023-02-28T10:07:34.549Z,102556.86
2023-02-28T10:10:05.133Z,102554.87
2023-02-28T10:12:34.006Z,102552.92
2023-02-28T10:15:05.187Z,102542.21
2023-02-28T10:17:49.424Z,102540.10
2023-02-28T10:20:25.166Z,102540.52
2023-02-28T10:23:13.827Z,102545.80
2023-02-28T10:25:42.134Z,102544.85
2023-02-28T10:28:15.515Z,102545.11
2023-02-28T10:30:45.930Z,102544.35
2023-02-28T10:33:24.229Z,102534.55
2023-02-28T10:35:53.504Z,102542.55
2023-02-28T10:38:47.697Z,102543.51
2023-02-28T10:41:27.796Z,102535.73
2023-02-28T10:44:23.692Z,102525.35
2023-02-28T10:46:54.893Z,102525.12
2023-02-28T10:49:24.898Z,102521.11
2023-02-28T10:51:57.894Z,102523.19
2023-02-28T10:54:30.898Z,102522.52
2023-02-28T10:57:14.759Z,102529.30
2023-02-28T10:59:43.045Z,102528.77
2023-02-28T11:05:26.266Z,102522.36
2023-02-28T11:08:03.605Z,102526.66
2023-02-28T11:10:35.800Z,102527.06
2023-02-28T11:13:07.484Z,102522.58
2023-02-28T11:15:37.005Z,102522.59
2023-02-28T11:18:21.491Z,102521.17
2023-02-28T11:20:54.899Z,102524.05
2023-02-28T11:23:30.205Z,102522.22
2023-02-28T11:26:03.542Z,102517.52
2023-02-28T11:28:36.714Z,102522.41
2023-02-28T11:31:20.187Z,102518.43
2023-02-28T11:33:51.416Z,102518.15
2023-02-28T11:36:25.783Z,102510.66
2023-02-28T11:38:55.438Z,102507.69
2023-02-28T11:41:45.604Z,102513.58
2023-02-28T11:44:26.169Z,102516.09
2023-02-28T11:47:22.670Z,102514.92
2023-02-28T11:49:58.690Z,102515.69
2023-02-28T11:52:54.132Z,102518.84
2023-02-28T11:55:33.732Z,102520.91
2023-02-28T11:58:12.054Z,102517.23
2023-02-28T12:00:59.935Z,102516.88
2023-02-28T12:03:56.929Z,102518.69
2023-02-28T12:06:41.685Z,102516.71
2023-02-28T12:09:34.745Z,102519.30
2023-02-28T12:12:02.891Z,102515.59
2023-02-28T12:15:02.785Z,102520.97
2023-02-28T12:17:48.044Z,102514.05
2023-02-28T12:20:27.316Z,102508.96
2023-02-28T12:23:29.565Z,102502.34
2023-02-28T12:26:33.255Z,102500.86
2023-02-28T12:29:25.165Z,102508.02
2023-02-28T12:32:00.554Z,102510.15
2023-02-28T12:34:32.741Z,102503.02
2023-02-28T12:37:05.409Z,102500.65
2023-02-28T12:39:50.505Z,102504.98
2023-02-28T12:42:21.573Z,102511.36
2023-02-28T12:45:42.920Z,102509.23
2023-02-28T12:48:41.035Z,102504.89
2023-02-28T12:51:10.101Z,102502.95
2023-02-28T12:54:01.791Z,102499.58
2023-02-28T12:56:49.080Z,102493.92
2023-02-28T12:59:27.036Z,102490.48
2023-02-28T13:02:01.465Z,102490.07
2023-02-28T13:05:15.691Z,102488.84
2023-02-28T13:08:09.775Z,102483.00
2023-02-28T13:10:58.508Z,102476.20
2023-02-28T13:13:33.028Z,102472.17
2023-02-28T13:16:02.616Z,102466.29
2023-02-28T13:18:40.902Z,102466.11
2023-02-28T13:21:10.113Z,102464.70
2023-02-28T13:24:00.979Z,102459.54
2023-02-28T13:26:39.013Z,102460.96
2023-02-28T13:29:19.351Z,102461.44
2023-02-28T13:32:09.864Z,102463.47
2023-02-28T13:34:50.361Z,102462.59
2023-02-28T13:37:22.801Z,102462.23
2023-02-28T13:39:58.060Z,102462.84
2023-02-28T13:42:32.924Z,102452.56
2023-02-28T13:45:07.271Z,102457.29
2023-02-28T13:47:54.442Z,102454.05
2023-02-28T13:50:26.829Z,102453.20
2023-02-28T13:53:07.383Z,102452.98
2023-02-28T13:55:57.685Z,102455.11
2023-02-28T13:58:32.452Z,102459.94
2023-02-28T14:01:08.927Z,102462.69
2023-02-28T14:04:08.739Z,102456.11
2023-02-28T14:06:38.152Z,102455.29
2023-02-28T14:09:13.008Z,102453.54
2023-02-28T14:11:41.936Z,102450.24
2023-02-28T14:14:48.979Z,102446.44
2023-02-28T14:17:17.346Z,102447.35
2023-02-28T14:19:51.450Z,102447.71
2023-02-28T14:22:51.302Z,102448.58
2023-02-28T14:25:22.900Z,102448.64
2023-02-28T14:28:10.031Z,102444.90
2023-02-28T14:30:54.118Z,102445.55
2023-02-28T14:33:30.669Z,102446.88
2023-02-28T14:36:14.907Z,102449.23
2023-02-28T14:39:01.487Z,102449.73
2023-02-28T14:41:40.238Z,102453.18
2023-02-28T14:44:17.831Z,102451.25
2023-02-28T14:46:47.420Z,102450.38
2023-02-28T14:49:28.688Z,102450.65
2023-02-28T14:52:20.581Z,102448.39
2023-02-28T14:55:15.683Z,102449.98
2023-02-28T14:57:53.487Z,102446.49
2023-02-28T15:00:41.367Z,102446.99
2023-02-28T15:03:33.282Z,102447.63
2023-02-28T15:06:03.735Z,102452.30
2023-02-28T15:08:37.321Z,102452.73
2023-02-28T15:11:08.468Z,102450.02
2023-02-28T15:13:42.906Z,102448.17
2023-02-28T15:16:21.325Z,102445.23
2023-02-28T15:19:01.456Z,102443.55
2023-02-28T15:21:36.400Z,102440.70
2023-02-28T15:24:32.867Z,102438.68
2023-02-28T15:27:06.089Z,102441.48
2023-02-28T15:29:53.786Z,102439.70
2023-02-28T15:32:34.261Z,102441.45
2023-02-28T15:35:42.254Z,102440.90
2023-02-28T15:38:34.856Z,102440.65
2023-02-28T15:41:06.576Z,102438.11
2023-02-28T15:43:42.848Z,102438.77
2023-02-28T15:46:13.466Z,102437.19
2023-02-28T15:48:49.220Z,102440.08
2023-02-28T15:51:38.284Z,102436.90
2023-02-28T15:54:12.430Z,102441.27
2023-02-28T15:56:48.640Z,102440.59
2023-02-28T15:59:22.350Z,102442.98
2023-02-28T16:02:23.589Z,102445.52
2023-02-28T16:05:04.204Z,102454.36
2023-02-28T16:07:34.501Z,102457.00
2023-02-28T16:10:03.316Z,102456.15
2023-02-28T16:12:34.212Z,102461.39
2023-02-28T16:15:20.983Z,102459.83
2023-02-28T16:17:49.429Z,102463.85
2023-02-28T16:20:22.877Z,102472.54
2023-02-28T16:22:51.368Z,102475.16
2023-02-28T16:25:25.005Z,102480.06
2023-02-28T16:27:54.941Z,102480.89
2023-02-28T16:30:25.323Z,102486.59
2023-02-28T16:32:55.755Z,102486.33
2023-02-28T16:35:24.401Z,102490.00
2023-02-28T16:37:53.013Z,102493.95
2023-02-28T16:40:26.604Z,102492.74
2023-02-28T16:42:56.673Z,102496.21
2023-02-28T16:45:26.622Z,102502.92
2023-02-28T16:47:58.714Z,102501.70
2023-02-28T16:50:28.967Z,102502.80
2023-02-28T16:52:57.440Z,102499.08
2023-02-28T16:55:26.800Z,102500.66
2023-02-28T16:57:58.718Z,102498.16
2023-02-28T17:00:28.424Z,102501.19
2023-02-28T17:02:57.026Z,102499.75
2023-02-28T17:05:25.497Z,102500.50
2023-02-28T17:07:55.996Z,102496.89
2023-02-28T17:10:26.140Z,102495.81
2023-02-28T17:13:09.585Z,102497.80
2023-02-28T17:15:44.655Z,102501.80
2023-02-28T17:18:16.482Z,102503.37
2023-02-28T17:20:46.628Z,102502.26
2023-02-28T17:23:15.232Z,102499.75
2023-02-28T17:25:57.716Z,102500.48
2023-02-28T17:28:26.513Z,102498.58
2023-02-28T17:30:55.360Z,102499.17
2023-02-28T17:33:23.555Z,102497.02
2023-02-28T17:35:51.981Z,102498.77
2023-02-28T17:38:20.916Z,102498.72
2023-02-28T17:40:49.400Z,102493.36
2023-02-28T17:43:17.685Z,102498.33
2023-02-28T17:45:45.871Z,102500.04
2023-02-28T17:48:16.003Z,102498.82
2023-02-28T17:50:44.738Z,102498.13
2023-02-28T17:53:13.619Z,102497.62
2023-02-28T17:55:42.218Z,102502.30
2023-02-28T17:58:12.309Z,102504.87
2023-02-28T18:00:42.636Z,102503.87
2023-02-28T18:03:10.758Z,102502.36
2023-02-28T18:05:39.540Z,102498.54
2023-02-28T18:08:14.042Z,102500.89
2023-02-28T18:10:42.597Z,102500.35
2023-02-28T18:13:13.603Z,102498.02
2023-02-28T18:15:41.787Z,102499.56
2023-02-28T18:18:10.557Z,102499.23
2023-02-28T18:20:38.835Z,102498.44
2023-02-28T18:23:07.480Z,102505.71
2023-02-28T18:25:35.693Z,102509.14
2023-02-28T18:28:05.282Z,102513.14
2023-02-28T18:30:37.489Z,102510.25
2023-02-28T18:33:05.815Z,102506.48
2023-02-28T18:35:37.516Z,102501.70
2023-02-28T18:38:16.988Z,102494.89
2023-02-28T18:40:56.065Z,102490.39
2023-02-28T18:43:28.564Z,102488.21
2023-02-28T18:45:56.780Z,102480.52
2023-02-28T18:48:25.001Z,102485.42
2023-02-28T18:50:53.346Z,102479.41
2023-02-28T18:53:21.447Z,102486.54
2023-02-28T18:55:49.999Z,102488.52
2023-02-28T18:58:18.112Z,102490.34
2023-02-28T19:00:47.855Z,102488.20
2023-02-28T19:03:17.805Z,102490.90
2023-02-28T19:05:47.754Z,102487.70
2023-02-28T19:08:17.202Z,102487.73
2023-02-28T19:10:46.915Z,102490.70
2023-02-28T19:13:15.080Z,102494.64
2023-02-28T19:15:47.987Z,102495.79
2023-02-28T19:18:17.390Z,102492.10
2023-02-28T19:20:50.768Z,102483.33
2023-02-28T19:23:19.461Z,102480.23
2023-02-28T19:25:47.676Z,102491.39
2023-02-28T19:28:16.374Z,102496.33
2023-02-28T19:30:49.100Z,102493.75
2023-02-28T19:33:20.516Z,102488.23
2023-02-28T19:35:48.743Z,102481.10
2023-02-28T19:38:19.396Z,102480.02
2023-02-28T19:40:47.532Z,102475.89
2023-02-28T19:43:20.881Z,102481.80
2023-02-28T19:45:54.817Z,102479.52
2023-02-28T19:48:28.586Z,102470.23
2023-02-28T19:51:03.441Z,102459.68
2023-02-28T19:53:31.756Z,102463.74
2023-02-28T19:56:00.607Z,102462.77
2023-02-28T19:58:29.347Z,102458.55
2023-02-28T20:00:57.826Z,102462.40
2023-02-28T20:03:26.333Z,102469.13
2023-02-28T20:06:02.208Z,102470.83
2023-02-28T20:08:30.512Z,102477.55
2023-02-28T20:11:05.992Z,102473.64
2023-02-28T20:13:38.081Z,102476.59
2023-02-28T20:16:09.204Z,102468.77
2023-02-28T20:18:38.186Z,102465.85
2023-02-28T20:21:10.766Z,102460.02
2023-02-28T20:23:39.968Z,102454.98
2023-02-28T20:26:08.256Z,102451.58
2023-02-28T20:28:36.547Z,102458.46
2023-02-28T20:31:12.189Z,102459.85
2023-02-28T20:33:41.899Z,102462.29
2023-02-28T20:36:11.329Z,102465.08
2023-02-28T20:38:39.692Z,102469.05
2023-02-28T20:41:09.970Z,102473.95
2023-02-28T20:43:38.697Z,102467.90
2023-02-28T20:46:10.017Z,102476.91
2023-02-28T20:48:38.762Z,102479.90
2023-02-28T20:51:07.089Z,102482.84
2023-02-28T20:53:35.993Z,102479.13
2023-02-28T20:56:13.951Z,102477.05
2023-02-28T20:58:45.667Z,102482.29
2023-02-28T21:01:16.287Z,102482.73
2023-02-28T21:03:49.597Z,102477.73
2023-02-28T21:06:19.411Z,102476.92
2023-02-28T21:08:50.193Z,102466.36
2023-02-28T21:11:38.290Z,102460.46
2023-02-28T21:14:10.810Z,102459.39
2023-02-28T21:16:41.463Z,102452.97
2023-02-28T21:19:10.701Z,102451.46
2023-02-28T21:21:43.136Z,102442.84
2023-02-28T21:24:12.321Z,102435.55
2023-02-28T21:26:40.925Z,102431.08
2023-02-28T21:29:13.210Z,102427.27
2023-02-28T21:31:42.206Z,102430.48
2023-02-28T21:34:11.332Z,102429.59
2023-02-28T21:36:41.889Z,102427.77
2023-02-28T21:39:18.514Z,102431.91
2023-02-28T21:41:47.156Z,102432.27
2023-02-28T21:44:18.854Z,102438.89
2023-02-28T21:46:52.293Z,102440.02
2023-02-28T21:49:20.698Z,102444.38
2023-02-28T21:51:54.534Z,102449.73
2023-02-28T21:54:24.113Z,102453.33
2023-02-28T21:56:52.249Z,102459.16
2023-02-28T21:59:20.400Z,102459.62
2023-02-28T22:01:49.966Z,102456.88
2023-02-28T22:04:21.595Z,102454.95
2023-02-28T22:06:52.487Z,102456.66
2023-02-28T22:09:20.775Z,102457.56
2023-02-28T22:11:49.982Z,102457.20
2023-02-28T22:14:19.628Z,102460.02
2023-02-28T22:16:55.138Z,102460.64
2023-02-28T22:19:24.326Z,102462.14
2023-02-28T22:21:54.040Z,102461.83
2023-02-28T22:24:24.646Z,102464.55
2023-02-28T22:26:53.534Z,102466.84
2023-02-28T22:29:22.023Z,102469.01
2023-02-28T22:31:50.258Z,102468.29
2023-02-28T22:34:20.293Z,102461.78
2023-02-28T22:36:49.510Z,102461.23
2023-02-28T22:39:17.602Z,102463.80
2023-02-28T22:41:46.192Z,102466.81
2023-02-28T22:44:23.159Z,102467.90
2023-02-28T22:46:53.930Z,102465.20
2023-02-28T22:49:22.278Z,102464.95
2023-02-28T22:51:51.102Z,102471.13
2023-02-28T22:54:19.502Z,102471.92
2023-02-28T22:56:49.753Z,102466.88
2023-02-28T22:59:18.629Z,102469.94
2023-02-28T23:01:48.043Z,102468.65
2023-02-28T23:04:16.559Z,102468.15
2023-02-28T23:06:44.883Z,102466.30
2023-02-28T23:09:21.664Z,102467.73
2023-02-28T23:11:51.151Z,102462.53
2023-02-28T23:14:20.000Z,102463.17
2023-02-28T23:16:54.564Z,102461.86
2023-02-28T23:19:30.808Z,102462.48
2023-02-28T23:22:01.384Z,102457.08
2023-02-28T23:24:31.623Z,102455.77
2023-02-28T23:27:02.236Z,102453.36
2023-02-28T23:29:30.582Z,102449.80
2023-02-28T23:31:58.845Z,102448.20
2023-02-28T23:34:28.224Z,102450.94
2023-02-28T23:37:01.668Z,102451.30
2023-02-28T23:39:31.393Z,102447.52
2023-02-28T23:41:59.800Z,102446.66
2023-02-28T23:44:28.070Z,102442.11
2023-02-28T23:46:56.177Z,102439.05
2023-02-28T23:49:24.659Z,102438.86
2023-02-28T23:51:54.567Z,102434.04
2023-02-28T23:54:24.842Z,102432.48
2023-02-28T23:56:54.233Z,102426.42
2023-02-28T23:59:22.770Z,102429.30
